sensor_id;sensor_type;location;lat;lon;timestamp;P1;durP1;ratioP1;P2;durP2;ratioP2
34902;SDS011;21114;44.840;0.214;2022-11-11T00:01:54;112.95;;;22.45;;
34902;SDS011;21114;44.840;0.214;2022-11-11T00:04:21;102.95;;;20.17;;
34902;SDS011;21114;44.840;0.214;2022-11-11T00:06:47;104.03;;;15.73;;
34902;SDS011;21114;44.840;0.214;2022-11-11T00:09:13;134.95;;;20.98;;
34902;SDS011;21114;44.840;0.214;2022-11-11T00:11:39;101.25;;;17.13;;
34902;SDS011;21114;44.840;0.214;2022-11-11T00:14:05;73.85;;;12.90;;
34902;SDS011;21114;44.840;0.214;2022-11-11T00:16:31;76.88;;;12.30;;
34902;SDS011;21114;44.840;0.214;2022-11-11T00:19:17;46.95;;;12.45;;
34902;SDS011;21114;44.840;0.214;2022-11-11T00:22:18;93.85;;;16.05;;
34902;SDS011;21114;44.840;0.214;2022-11-11T00:25:59;95.53;;;18.35;;
34902;SDS011;21114;44.840;0.214;2022-11-11T00:29:14;27.30;;;7.43;;
34902;SDS011;21114;44.840;0.214;2022-11-11T00:31:40;30.13;;;9.23;;
34902;SDS011;21114;44.840;0.214;2022-11-11T00:34:26;37.47;;;8.60;;
34902;SDS011;21114;44.840;0.214;2022-11-11T00:36:52;56.63;;;11.93;;
34902;SDS011;21114;44.840;0.214;2022-11-11T00:39:18;84.93;;;13.75;;
34902;SDS011;21114;44.840;0.214;2022-11-11T00:41:45;53.17;;;13.88;;
34902;SDS011;21114;44.840;0.214;2022-11-11T00:44:11;53.72;;;12.07;;
34902;SDS011;21114;44.840;0.214;2022-11-11T00:46:37;133.18;;;15.90;;
34902;SDS011;21114;44.840;0.214;2022-11-11T00:49:31;56.90;;;11.52;;
34902;SDS011;21114;44.840;0.214;2022-11-11T00:52:24;47.90;;;11.00;;
34902;SDS011;21114;44.840;0.214;2022-11-11T00:54:50;71.07;;;12.43;;
34902;SDS011;21114;44.840;0.214;2022-11-11T00:57:16;48.95;;;11.15;;
34902;SDS011;21114;44.840;0.214;2022-11-11T00:59:42;32.78;;;9.10;;
34902;SDS011;21114;44.840;0.214;2022-11-11T01:02:08;59.00;;;10.70;;
34902;SDS011;21114;44.840;0.214;2022-11-11T01:04:34;43.75;;;11.52;;
34902;SDS011;21114;44.840;0.214;2022-11-11T01:07:00;48.70;;;10.93;;
34902;SDS011;21114;44.840;0.214;2022-11-11T01:09:26;65.60;;;13.18;;
34902;SDS011;21114;44.840;0.214;2022-11-11T01:11:52;61.65;;;12.55;;
34902;SDS011;21114;44.840;0.214;2022-11-11T01:14:18;50.53;;;14.80;;
34902;SDS011;21114;44.840;0.214;2022-11-11T01:16:44;43.80;;;11.63;;
34902;SDS011;21114;44.840;0.214;2022-11-11T01:19:10;99.97;;;16.67;;
34902;SDS011;21114;44.840;0.214;2022-11-11T01:21:36;65.05;;;12.82;;
34902;SDS011;21114;44.840;0.214;2022-11-11T01:24:03;47.72;;;11.77;;
34902;SDS011;21114;44.840;0.214;2022-11-11T01:26:29;104.72;;;16.25;;
34902;SDS011;21114;44.840;0.214;2022-11-11T01:28:55;88.63;;;15.90;;
34902;SDS011;21114;44.840;0.214;2022-11-11T01:32:10;71.60;;;13.40;;
34902;SDS011;21114;44.840;0.214;2022-11-11T01:34:36;95.60;;;13.90;;
34902;SDS011;21114;44.840;0.214;2022-11-11T01:37:02;40.75;;;10.23;;
34902;SDS011;21114;44.840;0.214;2022-11-11T01:39:28;60.67;;;12.07;;
34902;SDS011;21114;44.840;0.214;2022-11-11T01:41:54;34.00;;;8.80;;
34902;SDS011;21114;44.840;0.214;2022-11-11T01:47:13;58.17;;;10.90;;
34902;SDS011;21114;44.840;0.214;2022-11-11T01:50:46;43.20;;;9.25;;
34902;SDS011;21114;44.840;0.214;2022-11-11T01:53:12;55.95;;;11.93;;
34902;SDS011;21114;44.840;0.214;2022-11-11T01:55:38;34.15;;;9.23;;
34902;SDS011;21114;44.840;0.214;2022-11-11T01:58:06;38.97;;;9.93;;
34902;SDS011;21114;44.840;0.214;2022-11-11T02:01:22;38.50;;;9.52;;
34902;SDS011;21114;44.840;0.214;2022-11-11T02:03:48;30.50;;;7.60;;
34902;SDS011;21114;44.840;0.214;2022-11-11T02:07:33;43.58;;;9.55;;
34902;SDS011;21114;44.840;0.214;2022-11-11T02:11:17;53.33;;;11.98;;
34902;SDS011;21114;44.840;0.214;2022-11-11T02:15:00;88.78;;;11.25;;
34902;SDS011;21114;44.840;0.214;2022-11-11T02:18:15;36.10;;;11.32;;
34902;SDS011;21114;44.840;0.214;2022-11-11T02:20:41;37.88;;;9.77;;
34902;SDS011;21114;44.840;0.214;2022-11-11T02:24:01;42.67;;;9.50;;
34902;SDS011;21114;44.840;0.214;2022-11-11T02:27:16;58.05;;;10.57;;
34902;SDS011;21114;44.840;0.214;2022-11-11T02:30:32;44.97;;;9.05;;
34902;SDS011;21114;44.840;0.214;2022-11-11T02:33:47;15.23;;;7.22;;
34902;SDS011;21114;44.840;0.214;2022-11-11T02:36:13;22.30;;;6.25;;
34902;SDS011;21114;44.840;0.214;2022-11-11T02:39:28;11.65;;;5.68;;
34902;SDS011;21114;44.840;0.214;2022-11-11T02:42:43;15.73;;;5.68;;
34902;SDS011;21114;44.840;0.214;2022-11-11T02:45:09;11.93;;;5.53;;
34902;SDS011;21114;44.840;0.214;2022-11-11T02:47:36;27.38;;;6.63;;
34902;SDS011;21114;44.840;0.214;2022-11-11T02:50:02;13.50;;;6.28;;
34902;SDS011;21114;44.840;0.214;2022-11-11T02:52:28;24.55;;;5.53;;
34902;SDS011;21114;44.840;0.214;2022-11-11T02:54:54;8.55;;;4.38;;
34902;SDS011;21114;44.840;0.214;2022-11-11T02:57:21;15.30;;;4.80;;
34902;SDS011;21114;44.840;0.214;2022-11-11T02:59:47;13.75;;;5.15;;
34902;SDS011;21114;44.840;0.214;2022-11-11T03:02:13;10.07;;;4.47;;
34902;SDS011;21114;44.840;0.214;2022-11-11T03:04:39;9.05;;;4.82;;
34902;SDS011;21114;44.840;0.214;2022-11-11T03:07:05;10.00;;;4.38;;
34902;SDS011;21114;44.840;0.214;2022-11-11T03:09:31;7.38;;;4.28;;
34902;SDS011;21114;44.840;0.214;2022-11-11T03:11:58;17.30;;;4.80;;
34902;SDS011;21114;44.840;0.214;2022-11-11T03:14:24;13.65;;;5.32;;
34902;SDS011;21114;44.840;0.214;2022-11-11T03:16:50;16.25;;;5.72;;
34902;SDS011;21114;44.840;0.214;2022-11-11T03:19:45;22.27;;;5.40;;
34902;SDS011;21114;44.840;0.214;2022-11-11T03:22:11;13.32;;;4.53;;
34902;SDS011;21114;44.840;0.214;2022-11-11T03:24:37;11.98;;;5.18;;
34902;SDS011;21114;44.840;0.214;2022-11-11T03:27:30;5.85;;;3.70;;
34902;SDS011;21114;44.840;0.214;2022-11-11T03:29:56;7.57;;;3.67;;
34902;SDS011;21114;44.840;0.214;2022-11-11T03:32:22;7.03;;;4.07;;
34902;SDS011;21114;44.840;0.214;2022-11-11T03:34:48;43.25;;;9.45;;
34902;SDS011;21114;44.840;0.214;2022-11-11T03:37:14;13.02;;;5.03;;
34902;SDS011;21114;44.840;0.214;2022-11-11T03:40:08;53.10;;;6.93;;
34902;SDS011;21114;44.840;0.214;2022-11-11T03:42:35;33.35;;;7.18;;
34902;SDS011;21114;44.840;0.214;2022-11-11T03:45:01;21.52;;;4.65;;
34902;SDS011;21114;44.840;0.214;2022-11-11T03:47:27;30.75;;;6.47;;
34902;SDS011;21114;44.840;0.214;2022-11-11T03:49:53;41.92;;;6.60;;
34902;SDS011;21114;44.840;0.214;2022-11-11T03:52:19;25.38;;;6.60;;
34902;SDS011;21114;44.840;0.214;2022-11-11T03:54:45;29.83;;;5.70;;
34902;SDS011;21114;44.840;0.214;2022-11-11T03:57:11;13.82;;;5.05;;
34902;SDS011;21114;44.840;0.214;2022-11-11T04:00:05;52.67;;;8.85;;
34902;SDS011;21114;44.840;0.214;2022-11-11T04:02:31;31.98;;;6.72;;
34902;SDS011;21114;44.840;0.214;2022-11-11T04:05:25;15.70;;;5.78;;
34902;SDS011;21114;44.840;0.214;2022-11-11T04:08:17;19.20;;;7.28;;
34902;SDS011;21114;44.840;0.214;2022-11-11T04:12:00;10.88;;;6.55;;
34902;SDS011;21114;44.840;0.214;2022-11-11T04:14:26;12.50;;;5.97;;
34902;SDS011;21114;44.840;0.214;2022-11-11T04:17:20;6.22;;;4.65;;
34902;SDS011;21114;44.840;0.214;2022-11-11T04:19:46;8.73;;;6.50;;
34902;SDS011;21114;44.840;0.214;2022-11-11T04:22:40;8.43;;;6.55;;
34902;SDS011;21114;44.840;0.214;2022-11-11T04:25:58;20.95;;;8.23;;
34902;SDS011;21114;44.840;0.214;2022-11-11T04:29:13;41.30;;;9.90;;
34902;SDS011;21114;44.840;0.214;2022-11-11T04:32:06;8.07;;;6.70;;
34902;SDS011;21114;44.840;0.214;2022-11-11T04:35:21;6.72;;;4.13;;
34902;SDS011;21114;44.840;0.214;2022-11-11T04:37:48;7.03;;;5.22;;
34902;SDS011;21114;44.840;0.214;2022-11-11T04:41:31;9.20;;;5.10;;
34902;SDS011;21114;44.840;0.214;2022-11-11T04:43:57;16.42;;;5.63;;
34902;SDS011;21114;44.840;0.214;2022-11-11T04:46:51;27.52;;;5.95;;
34902;SDS011;21114;44.840;0.214;2022-11-11T04:49:17;15.98;;;5.57;;
34902;SDS011;21114;44.840;0.214;2022-11-11T04:51:43;6.05;;;4.20;;
34902;SDS011;21114;44.840;0.214;2022-11-11T04:54:38;39.70;;;9.75;;
34902;SDS011;21114;44.840;0.214;2022-11-11T04:57:23;67.95;;;6.53;;
34902;SDS011;21114;44.840;0.214;2022-11-11T04:59:50;34.03;;;8.23;;
34902;SDS011;21114;44.840;0.214;2022-11-11T05:02:16;16.13;;;5.93;;
34902;SDS011;21114;44.840;0.214;2022-11-11T05:05:09;19.00;;;4.93;;
34902;SDS011;21114;44.840;0.214;2022-11-11T05:07:36;12.60;;;5.25;;
34902;SDS011;21114;44.840;0.214;2022-11-11T05:10:31;27.08;;;5.90;;
34902;SDS011;21114;44.840;0.214;2022-11-11T05:12:57;11.40;;;5.47;;
34902;SDS011;21114;44.840;0.214;2022-11-11T05:15:43;7.68;;;6.55;;
34902;SDS011;21114;44.840;0.214;2022-11-11T05:18:37;8.40;;;4.78;;
34902;SDS011;21114;44.840;0.214;2022-11-11T05:21:31;28.08;;;7.28;;
34902;SDS011;21114;44.840;0.214;2022-11-11T05:23:57;81.43;;;8.77;;
34902;SDS011;21114;44.840;0.214;2022-11-11T05:26:51;14.35;;;6.45;;
34902;SDS011;21114;44.840;0.214;2022-11-11T05:29:17;6.93;;;5.07;;
34902;SDS011;21114;44.840;0.214;2022-11-11T05:31:43;7.90;;;5.07;;
34902;SDS011;21114;44.840;0.214;2022-11-11T05:34:09;11.13;;;7.95;;
34902;SDS011;21114;44.840;0.214;2022-11-11T05:36:35;6.00;;;4.75;;
34902;SDS011;21114;44.840;0.214;2022-11-11T05:39:01;6.88;;;5.18;;
34902;SDS011;21114;44.840;0.214;2022-11-11T05:41:27;5.28;;;4.50;;
34902;SDS011;21114;44.840;0.214;2022-11-11T05:43:53;4.80;;;4.35;;
34902;SDS011;21114;44.840;0.214;2022-11-11T05:46:20;22.55;;;6.70;;
34902;SDS011;21114;44.840;0.214;2022-11-11T05:48:46;13.43;;;6.18;;
34902;SDS011;21114;44.840;0.214;2022-11-11T05:51:32;9.02;;;5.03;;
34902;SDS011;21114;44.840;0.214;2022-11-11T05:53:58;3.58;;;3.25;;
34902;SDS011;21114;44.840;0.214;2022-11-11T05:56:24;7.28;;;3.97;;
34902;SDS011;21114;44.840;0.214;2022-11-11T05:58:50;5.05;;;3.58;;
34902;SDS011;21114;44.840;0.214;2022-11-11T06:01:16;5.38;;;3.20;;
34902;SDS011;21114;44.840;0.214;2022-11-11T06:03:42;3.25;;;2.92;;
34902;SDS011;21114;44.840;0.214;2022-11-11T06:06:09;4.35;;;3.20;;
34902;SDS011;21114;44.840;0.214;2022-11-11T06:09:23;5.15;;;3.78;;
34902;SDS011;21114;44.840;0.214;2022-11-11T06:11:49;7.68;;;4.68;;
34902;SDS011;21114;44.840;0.214;2022-11-11T06:14:16;14.50;;;5.85;;
34902;SDS011;21114;44.840;0.214;2022-11-11T06:16:42;9.10;;;4.65;;
34902;SDS011;21114;44.840;0.214;2022-11-11T06:19:08;4.72;;;4.32;;
34902;SDS011;21114;44.840;0.214;2022-11-11T06:21:34;2.55;;;2.35;;
34902;SDS011;21114;44.840;0.214;2022-11-11T06:24:20;3.92;;;3.63;;
34902;SDS011;21114;44.840;0.214;2022-11-11T06:26:46;3.80;;;2.78;;
34902;SDS011;21114;44.840;0.214;2022-11-11T06:29:12;5.13;;;4.63;;
34902;SDS011;21114;44.840;0.214;2022-11-11T06:31:38;4.75;;;4.22;;
34902;SDS011;21114;44.840;0.214;2022-11-11T06:34:04;4.90;;;3.20;;
34902;SDS011;21114;44.840;0.214;2022-11-11T06:36:30;2.45;;;2.25;;
34902;SDS011;21114;44.840;0.214;2022-11-11T06:38:56;3.53;;;3.05;;
34902;SDS011;21114;44.840;0.214;2022-11-11T06:41:22;2.65;;;2.45;;
34902;SDS011;21114;44.840;0.214;2022-11-11T06:43:49;3.33;;;2.83;;
34902;SDS011;21114;44.840;0.214;2022-11-11T06:46:17;3.55;;;3.25;;
34902;SDS011;21114;44.840;0.214;2022-11-11T06:49:12;2.78;;;2.35;;
34902;SDS011;21114;44.840;0.214;2022-11-11T06:51:38;3.72;;;2.92;;
34902;SDS011;21114;44.840;0.214;2022-11-11T06:54:04;2.70;;;2.47;;
34902;SDS011;21114;44.840;0.214;2022-11-11T06:56:30;2.83;;;2.63;;
34902;SDS011;21114;44.840;0.214;2022-11-11T06:58:56;2.63;;;2.42;;
34902;SDS011;21114;44.840;0.214;2022-11-11T07:01:22;3.47;;;2.67;;
34902;SDS011;21114;44.840;0.214;2022-11-11T07:03:48;3.33;;;2.40;;
34902;SDS011;21114;44.840;0.214;2022-11-11T07:06:14;3.55;;;2.72;;
34902;SDS011;21114;44.840;0.214;2022-11-11T07:08:40;3.58;;;3.28;;
34902;SDS011;21114;44.840;0.214;2022-11-11T07:11:08;3.60;;;3.30;;
34902;SDS011;21114;44.840;0.214;2022-11-11T07:13:35;3.17;;;2.88;;
34902;SDS011;21114;44.840;0.214;2022-11-11T07:16:01;4.25;;;3.85;;
34902;SDS011;21114;44.840;0.214;2022-11-11T07:18:27;5.55;;;4.47;;
34902;SDS011;21114;44.840;0.214;2022-11-11T07:20:53;5.72;;;5.10;;
34902;SDS011;21114;44.840;0.214;2022-11-11T07:23:19;3.33;;;3.03;;
34902;SDS011;21114;44.840;0.214;2022-11-11T07:25:45;12.05;;;9.95;;
34902;SDS011;21114;44.840;0.214;2022-11-11T07:28:11;18.30;;;13.40;;
34902;SDS011;21114;44.840;0.214;2022-11-11T07:30:37;9.90;;;7.10;;
34902;SDS011;21114;44.840;0.214;2022-11-11T07:33:03;5.75;;;5.15;;
34902;SDS011;21114;44.840;0.214;2022-11-11T07:35:30;4.90;;;4.32;;
34902;SDS011;21114;44.840;0.214;2022-11-11T07:37:56;4.95;;;3.75;;
34902;SDS011;21114;44.840;0.214;2022-11-11T07:40:22;4.10;;;3.67;;
34902;SDS011;21114;44.840;0.214;2022-11-11T07:42:48;5.00;;;4.47;;
34902;SDS011;21114;44.840;0.214;2022-11-11T07:45:14;5.00;;;3.75;;
34902;SDS011;21114;44.840;0.214;2022-11-11T07:47:42;4.75;;;4.28;;
34902;SDS011;21114;44.840;0.214;2022-11-11T07:50:56;4.38;;;3.97;;
34902;SDS011;21114;44.840;0.214;2022-11-11T07:53:22;5.63;;;5.10;;
34902;SDS011;21114;44.840;0.214;2022-11-11T07:55:50;4.75;;;4.28;;
34902;SDS011;21114;44.840;0.214;2022-11-11T07:58:16;4.85;;;3.88;;
34902;SDS011;21114;44.840;0.214;2022-11-11T08:00:42;4.97;;;4.38;;
34902;SDS011;21114;44.840;0.214;2022-11-11T08:03:08;6.07;;;5.38;;
34902;SDS011;21114;44.840;0.214;2022-11-11T08:05:34;7.70;;;6.03;;
34902;SDS011;21114;44.840;0.214;2022-11-11T08:08:02;5.93;;;5.07;;
34902;SDS011;21114;44.840;0.214;2022-11-11T08:11:17;7.53;;;6.18;;
34902;SDS011;21114;44.840;0.214;2022-11-11T08:14:03;7.97;;;5.85;;
34902;SDS011;21114;44.840;0.214;2022-11-11T08:16:29;8.25;;;6.80;;
34902;SDS011;21114;44.840;0.214;2022-11-11T08:18:55;7.50;;;6.75;;
34902;SDS011;21114;44.840;0.214;2022-11-11T08:21:22;7.80;;;6.80;;
34902;SDS011;21114;44.840;0.214;2022-11-11T08:23:49;7.88;;;6.25;;
34902;SDS011;21114;44.840;0.214;2022-11-11T08:26:16;6.55;;;5.95;;
34902;SDS011;21114;44.840;0.214;2022-11-11T08:29:31;8.38;;;7.57;;
34902;SDS011;21114;44.840;0.214;2022-11-11T08:31:57;8.15;;;6.50;;
34902;SDS011;21114;44.840;0.214;2022-11-11T08:34:23;7.70;;;6.95;;
34902;SDS011;21114;44.840;0.214;2022-11-11T08:36:49;7.38;;;5.97;;
34902;SDS011;21114;44.840;0.214;2022-11-11T08:39:15;8.68;;;7.88;;
34902;SDS011;21114;44.840;0.214;2022-11-11T08:41:41;8.13;;;7.32;;
34902;SDS011;21114;44.840;0.214;2022-11-11T08:44:08;7.90;;;7.10;;
34902;SDS011;21114;44.840;0.214;2022-11-11T08:46:34;7.90;;;6.90;;
34902;SDS011;21114;44.840;0.214;2022-11-11T08:49:00;9.63;;;8.73;;
34902;SDS011;21114;44.840;0.214;2022-11-11T08:51:26;8.30;;;7.50;;
34902;SDS011;21114;44.840;0.214;2022-11-11T08:53:52;6.55;;;5.68;;
34902;SDS011;21114;44.840;0.214;2022-11-11T08:56:18;6.90;;;6.10;;
34902;SDS011;21114;44.840;0.214;2022-11-11T08:58:44;8.30;;;6.75;;
34902;SDS011;21114;44.840;0.214;2022-11-11T09:01:11;12.05;;;10.95;;
34902;SDS011;21114;44.840;0.214;2022-11-11T09:04:26;11.93;;;8.73;;
34902;SDS011;21114;44.840;0.214;2022-11-11T09:06:52;9.63;;;7.15;;
34902;SDS011;21114;44.840;0.214;2022-11-11T09:09:18;6.85;;;5.75;;
34902;SDS011;21114;44.840;0.214;2022-11-11T09:11:44;7.70;;;5.78;;
34902;SDS011;21114;44.840;0.214;2022-11-11T09:14:10;5.82;;;4.82;;
34902;SDS011;21114;44.840;0.214;2022-11-11T09:16:36;6.10;;;4.75;;
34902;SDS011;21114;44.840;0.214;2022-11-11T09:19:02;7.65;;;5.40;;
34902;SDS011;21114;44.840;0.214;2022-11-11T09:21:28;6.55;;;5.45;;
34902;SDS011;21114;44.840;0.214;2022-11-11T09:23:55;6.60;;;5.65;;
34902;SDS011;21114;44.840;0.214;2022-11-11T09:26:21;6.65;;;5.57;;
34902;SDS011;21114;44.840;0.214;2022-11-11T09:28:47;6.97;;;6.22;;
34902;SDS011;21114;44.840;0.214;2022-11-11T09:31:13;10.32;;;8.93;;
34902;SDS011;21114;44.840;0.214;2022-11-11T09:33:39;9.05;;;7.93;;
34902;SDS011;21114;44.840;0.214;2022-11-11T09:36:05;6.90;;;6.18;;
34902;SDS011;21114;44.840;0.214;2022-11-11T09:38:31;7.35;;;5.18;;
34902;SDS011;21114;44.840;0.214;2022-11-11T09:51:31;5.20;;;4.57;;
34902;SDS011;21114;44.840;0.214;2022-11-11T09:54:53;6.57;;;4.68;;
34902;SDS011;21114;44.840;0.214;2022-11-11T09:58:11;5.80;;;5.25;;
34902;SDS011;21114;44.840;0.214;2022-11-11T10:01:25;6.38;;;5.18;;
34902;SDS011;21114;44.840;0.214;2022-11-11T10:10:16;7.68;;;5.80;;
34902;SDS011;21114;44.840;0.214;2022-11-11T10:13:32;6.80;;;5.88;;
34902;SDS011;21114;44.840;0.214;2022-11-11T10:19:48;9.00;;;5.43;;
34902;SDS011;21114;44.840;0.214;2022-11-11T10:23:13;10.90;;;6.28;;
34902;SDS011;21114;44.840;0.214;2022-11-11T10:26:31;5.95;;;5.25;;
34902;SDS011;21114;44.840;0.214;2022-11-11T10:29:49;10.00;;;5.72;;
34902;SDS011;21114;44.840;0.214;2022-11-11T10:32:17;6.55;;;5.90;;
34902;SDS011;21114;44.840;0.214;2022-11-11T10:35:28;6.00;;;4.55;;
34902;SDS011;21114;44.840;0.214;2022-11-11T10:41:08;5.82;;;4.70;;
34902;SDS011;21114;44.840;0.214;2022-11-11T10:44:25;6.38;;;5.65;;
34902;SDS011;21114;44.840;0.214;2022-11-11T10:47:28;6.88;;;5.30;;
34902;SDS011;21114;44.840;0.214;2022-11-11T10:50:49;8.70;;;5.47;;
34902;SDS011;21114;44.840;0.214;2022-11-11T10:59:36;7.32;;;6.50;;
34902;SDS011;21114;44.840;0.214;2022-11-11T11:02:26;5.97;;;5.35;;
34902;SDS011;21114;44.840;0.214;2022-11-11T11:08:20;6.57;;;4.53;;
34902;SDS011;21114;44.840;0.214;2022-11-11T11:11:38;8.27;;;6.03;;
34902;SDS011;21114;44.840;0.214;2022-11-11T11:20:47;6.00;;;4.78;;
34902;SDS011;21114;44.840;0.214;2022-11-11T11:24:17;5.88;;;4.97;;
34902;SDS011;21114;44.840;0.214;2022-11-11T11:27:32;6.13;;;4.90;;
34902;SDS011;21114;44.840;0.214;2022-11-11T11:32:55;5.20;;;4.70;;
34902;SDS011;21114;44.840;0.214;2022-11-11T11:36:14;4.40;;;4.00;;
34902;SDS011;21114;44.840;0.214;2022-11-11T11:39:31;5.75;;;4.90;;
34902;SDS011;21114;44.840;0.214;2022-11-11T11:42:25;7.53;;;6.82;;
34902;SDS011;21114;44.840;0.214;2022-11-11T11:45:40;7.90;;;5.25;;
34902;SDS011;21114;44.840;0.214;2022-11-11T11:51:08;6.18;;;4.93;;
34902;SDS011;21114;44.840;0.214;2022-11-11T11:57:03;4.07;;;3.67;;
34902;SDS011;21114;44.840;0.214;2022-11-11T12:00:23;5.43;;;4.22;;
34902;SDS011;21114;44.840;0.214;2022-11-11T12:06:21;5.85;;;4.20;;
34902;SDS011;21114;44.840;0.214;2022-11-11T12:12:23;3.95;;;3.35;;
34902;SDS011;21114;44.840;0.214;2022-11-11T12:23:37;4.75;;;3.25;;
34902;SDS011;21114;44.840;0.214;2022-11-11T12:27:00;4.00;;;3.40;;
34902;SDS011;21114;44.840;0.214;2022-11-11T12:30:20;4.57;;;3.13;;
34902;SDS011;21114;44.840;0.214;2022-11-11T12:36:33;5.32;;;3.38;;
34902;SDS011;21114;44.840;0.214;2022-11-11T12:39:04;5.13;;;3.50;;
34902;SDS011;21114;44.840;0.214;2022-11-11T12:44:59;11.07;;;5.20;;
34902;SDS011;21114;44.840;0.214;2022-11-11T12:53:36;5.43;;;2.45;;
34902;SDS011;21114;44.840;0.214;2022-11-11T12:57:01;4.47;;;2.70;;
34902;SDS011;21114;44.840;0.214;2022-11-11T13:00:20;6.50;;;3.05;;
34902;SDS011;21114;44.840;0.214;2022-11-11T13:14:45;3.13;;;2.13;;
34902;SDS011;21114;44.840;0.214;2022-11-11T13:18:01;7.80;;;2.63;;
34902;SDS011;21114;44.840;0.214;2022-11-11T13:23:07;6.18;;;2.58;;
34902;SDS011;21114;44.840;0.214;2022-11-11T13:26:23;3.90;;;2.25;;
34902;SDS011;21114;44.840;0.214;2022-11-11T13:32:14;3.78;;;2.25;;
34902;SDS011;21114;44.840;0.214;2022-11-11T13:35:32;3.97;;;2.88;;
34902;SDS011;21114;44.840;0.214;2022-11-11T13:38:47;3.15;;;2.85;;
34902;SDS011;21114;44.840;0.214;2022-11-11T13:42:03;2.58;;;2.25;;
34902;SDS011;21114;44.840;0.214;2022-11-11T13:45:21;5.13;;;2.30;;
34902;SDS011;21114;44.840;0.214;2022-11-11T13:48:38;4.85;;;2.58;;
34902;SDS011;21114;44.840;0.214;2022-11-11T13:51:58;6.95;;;4.30;;
34902;SDS011;21114;44.840;0.214;2022-11-11T14:01:33;5.22;;;2.40;;
34902;SDS011;21114;44.840;0.214;2022-11-11T14:05:13;5.20;;;2.30;;
34902;SDS011;21114;44.840;0.214;2022-11-11T14:16:59;6.20;;;2.47;;
34902;SDS011;21114;44.840;0.214;2022-11-11T14:23:43;4.65;;;2.08;;
34902;SDS011;21114;44.840;0.214;2022-11-11T14:26:44;4.07;;;1.90;;
34902;SDS011;21114;44.840;0.214;2022-11-11T14:30:11;3.15;;;2.30;;
34902;SDS011;21114;44.840;0.214;2022-11-11T14:39:18;7.22;;;2.85;;
34902;SDS011;21114;44.840;0.214;2022-11-11T14:48:48;5.70;;;2.83;;
34902;SDS011;21114;44.840;0.214;2022-11-11T14:51:44;4.82;;;2.92;;
34902;SDS011;21114;44.840;0.214;2022-11-11T14:57:40;5.72;;;4.40;;
34902;SDS011;21114;44.840;0.214;2022-11-11T15:00:57;6.10;;;3.13;;
34902;SDS011;21114;44.840;0.214;2022-11-11T15:04:13;11.95;;;2.80;;
34902;SDS011;21114;44.840;0.214;2022-11-11T15:25:34;9.07;;;4.55;;
34902;SDS011;21114;44.840;0.214;2022-11-11T15:34:28;6.47;;;3.75;;
34902;SDS011;21114;44.840;0.214;2022-11-11T15:41:00;5.85;;;3.47;;
34902;SDS011;21114;44.840;0.214;2022-11-11T15:44:17;6.85;;;3.80;;
34902;SDS011;21114;44.840;0.214;2022-11-11T15:47:34;14.43;;;6.10;;
34902;SDS011;21114;44.840;0.214;2022-11-11T15:50:49;17.73;;;5.30;;
34902;SDS011;21114;44.840;0.214;2022-11-11T15:53:20;11.18;;;6.05;;
34902;SDS011;21114;44.840;0.214;2022-11-11T15:56:37;6.22;;;5.03;;
34902;SDS011;21114;44.840;0.214;2022-11-11T16:01:55;10.57;;;4.93;;
34902;SDS011;21114;44.840;0.214;2022-11-11T16:05:14;16.27;;;5.68;;
34902;SDS011;21114;44.840;0.214;2022-11-11T16:08:29;23.50;;;7.78;;
34902;SDS011;21114;44.840;0.214;2022-11-11T16:10:56;9.25;;;5.80;;
34902;SDS011;21114;44.840;0.214;2022-11-11T16:14:18;10.32;;;6.40;;
34902;SDS011;21114;44.840;0.214;2022-11-11T16:17:08;7.28;;;6.32;;
34902;SDS011;21114;44.840;0.214;2022-11-11T16:20:26;10.27;;;6.30;;
34902;SDS011;21114;44.840;0.214;2022-11-11T16:23:24;18.63;;;6.28;;
34902;SDS011;21114;44.840;0.214;2022-11-11T16:25:51;5.97;;;5.25;;
34902;SDS011;21114;44.840;0.214;2022-11-11T16:28:17;7.80;;;5.70;;
34902;SDS011;21114;44.840;0.214;2022-11-11T16:30:43;9.15;;;7.22;;
34902;SDS011;21114;44.840;0.214;2022-11-11T16:36:05;17.63;;;8.10;;
34902;SDS011;21114;44.840;0.214;2022-11-11T16:39:26;9.63;;;6.93;;
34902;SDS011;21114;44.840;0.214;2022-11-11T16:42:41;19.27;;;7.10;;
34902;SDS011;21114;44.840;0.214;2022-11-11T16:45:17;32.67;;;10.45;;
34902;SDS011;21114;44.840;0.214;2022-11-11T16:51:12;16.33;;;9.65;;
34902;SDS011;21114;44.840;0.214;2022-11-11T16:54:30;17.10;;;10.02;;
34902;SDS011;21114;44.840;0.214;2022-11-11T16:57:46;15.65;;;9.68;;
34902;SDS011;21114;44.840;0.214;2022-11-11T17:00:13;14.65;;;11.15;;
34902;SDS011;21114;44.840;0.214;2022-11-11T17:03:28;17.08;;;12.15;;
34902;SDS011;21114;44.840;0.214;2022-11-11T17:06:02;22.67;;;14.23;;
34902;SDS011;21114;44.840;0.214;2022-11-11T17:12:13;18.08;;;14.43;;
34902;SDS011;21114;44.840;0.214;2022-11-11T17:14:39;48.92;;;32.05;;
34902;SDS011;21114;44.840;0.214;2022-11-11T17:17:06;59.60;;;37.97;;
34902;SDS011;21114;44.840;0.214;2022-11-11T17:20:21;67.95;;;43.70;;
34902;SDS011;21114;44.840;0.214;2022-11-11T17:22:49;49.00;;;33.97;;
34902;SDS011;21114;44.840;0.214;2022-11-11T17:26:04;40.95;;;27.45;;
34902;SDS011;21114;44.840;0.214;2022-11-11T17:28:30;36.28;;;24.95;;
34902;SDS011;21114;44.840;0.214;2022-11-11T17:31:45;24.23;;;17.48;;
34902;SDS011;21114;44.840;0.214;2022-11-11T17:34:11;21.42;;;16.08;;
34902;SDS011;21114;44.840;0.214;2022-11-11T17:37:26;30.63;;;18.05;;
34902;SDS011;21114;44.840;0.214;2022-11-11T17:39:52;19.63;;;16.40;;
34902;SDS011;21114;44.840;0.214;2022-11-11T17:42:18;27.20;;;19.85;;
34902;SDS011;21114;44.840;0.214;2022-11-11T17:44:44;23.20;;;19.98;;
34902;SDS011;21114;44.840;0.214;2022-11-11T17:47:10;26.80;;;20.35;;
34902;SDS011;21114;44.840;0.214;2022-11-11T17:49:36;26.50;;;21.13;;
34902;SDS011;21114;44.840;0.214;2022-11-11T17:52:02;34.67;;;23.42;;
34902;SDS011;21114;44.840;0.214;2022-11-11T17:54:28;65.28;;;33.10;;
34902;SDS011;21114;44.840;0.214;2022-11-11T17:56:54;40.00;;;24.77;;
34902;SDS011;21114;44.840;0.214;2022-11-11T17:59:21;48.63;;;30.73;;
34902;SDS011;21114;44.840;0.214;2022-11-11T18:01:47;52.45;;;31.52;;
34902;SDS011;21114;44.840;0.214;2022-11-11T18:05:01;93.50;;;60.40;;
34902;SDS011;21114;44.840;0.214;2022-11-11T18:07:27;66.13;;;43.15;;
34902;SDS011;21114;44.840;0.214;2022-11-11T18:09:53;49.67;;;33.20;;
34902;SDS011;21114;44.840;0.214;2022-11-11T18:12:20;44.08;;;31.05;;
34902;SDS011;21114;44.840;0.214;2022-11-11T18:14:46;28.17;;;20.15;;
34902;SDS011;21114;44.840;0.214;2022-11-11T18:17:12;23.70;;;19.02;;
34902;SDS011;21114;44.840;0.214;2022-11-11T18:19:38;25.92;;;18.85;;
34902;SDS011;21114;44.840;0.214;2022-11-11T18:22:04;26.75;;;19.02;;
34902;SDS011;21114;44.840;0.214;2022-11-11T18:24:30;26.80;;;18.42;;
34902;SDS011;21114;44.840;0.214;2022-11-11T18:26:56;21.50;;;17.52;;
34902;SDS011;21114;44.840;0.214;2022-11-11T18:29:22;22.48;;;16.17;;
34902;SDS011;21114;44.840;0.214;2022-11-11T18:32:37;20.92;;;15.95;;
34902;SDS011;21114;44.840;0.214;2022-11-11T18:35:03;19.98;;;13.35;;
34902;SDS011;21114;44.840;0.214;2022-11-11T18:37:29;16.95;;;14.50;;
34902;SDS011;21114;44.840;0.214;2022-11-11T18:40:24;18.05;;;13.55;;
34902;SDS011;21114;44.840;0.214;2022-11-11T18:42:51;18.63;;;14.90;;
34902;SDS011;21114;44.840;0.214;2022-11-11T18:45:17;19.23;;;15.45;;
34902;SDS011;21114;44.840;0.214;2022-11-11T18:47:45;16.38;;;13.55;;
34902;SDS011;21114;44.840;0.214;2022-11-11T18:51:00;16.20;;;12.82;;
34902;SDS011;21114;44.840;0.214;2022-11-11T18:53:27;16.70;;;14.77;;
34902;SDS011;21114;44.840;0.214;2022-11-11T18:56:42;18.58;;;16.67;;
34902;SDS011;21114;44.840;0.214;2022-11-11T18:59:08;24.35;;;18.67;;